Atyla — YJTM7 — position and weather

sailwx.info

Track history (hours):
 
Tides and Currents Weather Stations Pressure Air Temp Water Temp Dewpoint Dewpoint Depression Visibility Wind Speed Wind Dir Waves Ship Positions

Atyla

Ship's website: http://atylaship.com

Last reported at 2017-May-11 12:51 UTC. Time now 2017-May-28 10:22 UTC.
Position N 28°19' W 015°37'.
Warning: this ship's position is 16 days out of date.

Length 24 m.

Type: Sailing vessel. MMSI: 577192000.

Date/timePositionNaut miles runAvg speedWind from/ knotsBaromVisibWave heightAir tempDewpointWater temp
2017-May-11 12:51N 28°19' W 015°37'3 5.4
2017-May-11 12:23N 28°18' W 015°35'2 5.5
2017-May-11 12:00N 28°17' W 015°33'3 6.0
2017-May-11 11:30N 28°15' W 015°30'3 5.6
2017-May-11 11:00N 28°14' W 015°28'3 5.0
2017-May-11 10:30N 28°12' W 015°25'2 4.3
2017-May-11 10:00N 28°11' W 015°24'3 5.2
2017-May-11 09:30N 28°08' W 015°24'1 2.5
2017-May-11 08:56N 28°08' W 015°26'0 0.0
2017-May-11 08:29N 28°08' W 015°26'0 0.0
2017-May-11 07:59N 28°08' W 015°26'0 0.0
2017-May-11 07:29N 28°08' W 015°26'0 0.0
2017-May-11 06:59N 28°08' W 015°26'0 0.1
2017-May-11 06:29N 28°08' W 015°25'0 0.0
2017-May-11 05:59N 28°08' W 015°25'0 0.0
2017-May-11 05:29N 28°08' W 015°25'0 0.0
2017-May-11 04:59N 28°08' W 015°25'0 0.0
2017-May-11 04:29N 28°08' W 015°25'0 0.0
2017-May-11 03:59N 28°08' W 015°25'0 0.0
2017-May-11 03:29N 28°08' W 015°25'0 0.0
2017-May-11 02:59N 28°08' W 015°25'0 0.0
2017-May-11 02:20N 28°08' W 015°25'0 0.0
2017-May-11 01:50N 28°08' W 015°25'0 0.0
2017-May-11 01:20N 28°08' W 015°25'0 0.0
2017-May-11 00:53N 28°08' W 015°25'0 0.0
2017-May-11 00:23N 28°08' W 015°25'0 0.0
2017-May-10 23:53N 28°08' W 015°25'0 0.0
2017-May-10 23:23N 28°08' W 015°25'0 0.0
2017-May-10 22:56N 28°08' W 015°25'0 0.0
2017-May-10 22:26N 28°08' W 015°25'0 0.0
2017-May-10 21:56N 28°08' W 015°25'0 0.0
2017-May-10 21:26N 28°08' W 015°25'0 0.0
2017-May-10 20:56N 28°08' W 015°25'0 0.0
2017-May-10 20:14N 28°08' W 015°25'0 0.0
2017-May-10 19:59N 28°08' W 015°25'0 0.0
2017-May-10 19:29N 28°08' W 015°25'0 0.0
2017-May-10 18:59N 28°08' W 015°25'0 0.0
2017-May-10 18:14N 28°08' W 015°25'0 0.0
2017-May-10 17:56N 28°08' W 015°25'0 0.0
2017-May-10 17:29N 28°08' W 015°25'0 0.0
2017-May-10 16:56N 28°08' W 015°25'0 0.0
2017-May-10 16:14N 28°08' W 015°25'0 0.0
2017-May-10 15:47N 28°08' W 015°25'0 0.0
2017-May-10 15:29N 28°08' W 015°25'0 0.0
2017-May-10 14:50N 28°08' W 015°25'0 0.0
2017-May-10 13:50N 28°08' W 015°25'0 0.0
2017-May-10 13:17N 28°08' W 015°25'0 0.0
2017-May-10 11:39N 28°08' W 015°25'0 0.0
2017-May-10 11:27N 28°08' W 015°25'0 0.0
2017-May-10 10:57N 28°08' W 015°25'0 0.0
2017-May-10 10:27N 28°08' W 015°25'0 0.0
2017-May-10 09:57N 28°08' W 015°25'0 0.0
2017-May-10 09:30N 28°08' W 015°25'0 0.0
2017-May-10 09:00N 28°08' W 015°25'0 0.0
2017-May-09 21:00N 28°08' W 015°25'0 0.0
2017-May-09 20:30N 28°08' W 015°25'0 0.0
2017-May-09 20:00N 28°08' W 015°25'0 0.0
2017-May-09 19:30N 28°08' W 015°26'0 0.0
2017-May-09 19:00N 28°08' W 015°25'0 0.0
2017-May-09 18:30N 28°08' W 015°25'0 0.0
2017-May-09 18:00N 28°08' W 015°26'0 0.0
2017-May-09 17:30N 28°08' W 015°25'0 0.0
2017-May-09 17:00N 28°08' W 015°25'0 0.0
2017-May-09 16:30N 28°08' W 015°25'0 0.0
2017-May-09 16:00N 28°08' W 015°26'0 0.0
2017-May-09 12:55N 28°08' W 015°25'0 0.0
2017-May-09 12:25N 28°08' W 015°25'0 0.0
2017-May-09 11:58N 28°08' W 015°25'0 0.0
2017-May-09 11:28N 28°08' W 015°25'0 0.0
2017-May-09 10:58N 28°08' W 015°25'0 0.0
2017-May-09 10:28N 28°08' W 015°25'0 0.0
2017-May-09 09:58N 28°08' W 015°25'0 0.0
2017-May-09 09:28N 28°08' W 015°25'0 0.0
2017-May-09 08:58N 28°08' W 015°25'0 0.0
2017-May-09 08:28N 28°08' W 015°25'0 0.0
2017-May-09 07:58N 28°08' W 015°25'0 0.0
2017-May-09 07:28N 28°08' W 015°25'0 0.0
2017-May-09 06:58N 28°08' W 015°25'0 0.0
2017-May-09 06:28N 28°08' W 015°25'0 0.1
2017-May-09 05:57N 28°08' W 015°26'0 0.6
2017-May-09 05:30N 28°08' W 015°25'2 4.5
2017-May-09 05:00N 28°08' W 015°23'3 6.2
2017-May-09 04:30N 28°10' W 015°20'3 6.3
2017-May-09 04:00N 28°11' W 015°17'3 6.3
2017-May-09 03:29N 28°13' W 015°14'3 6.2
2017-May-09 02:58N 28°15' W 015°10'3 6.1
2017-May-09 02:28N 28°16' W 015°07'3 6.0
2017-May-09 01:57N 28°18' W 015°04'3 5.9
2017-May-09 01:27N 28°19' W 015°01'3 5.8
2017-May-09 00:57N 28°20' W 014°58'3 5.6
2017-May-09 00:26N 28°21' W 014°55'79 4.7
2017-May-08 07:44N 28°55' W 013°34'2 7.4
2017-May-08 07:30N 28°56' W 013°32'4 7.4
2017-May-08 07:00N 28°58' W 013°29'  
2017-May-01 18:35N 37°46' W 008°54'1 5.2
2017-May-01 18:27N 37°47' W 008°54'1 3.1
2017-May-01 18:00N 37°48' W 008°54'0 0.9
2017-May-01 17:28N 37°49' W 008°53'3 4.8
2017-May-01 16:48N 37°50' W 008°50'1 3.7
2017-May-01 16:30N 37°51' W 008°49'3 5.4
2017-May-01 16:00N 37°54' W 008°49'2 4.9
2017-May-01 15:30N 37°55' W 008°51'2 3.3
2017-May-01 15:00N 37°57' W 008°52'0 0.2
2017-May-01 13:59N 37°57' W 008°52'0 0.0
2017-May-01 13:29N 37°57' W 008°52'0 0.0
2017-May-01 13:00N 37°57' W 008°52'  
Track history (hours):
 
Tides and Currents Weather Stations Pressure Air Temp Water Temp Dewpoint Dewpoint Depression Visibility Wind Speed Wind Dir Waves Ship Positions

Atyla

Ship's website: http://atylaship.com

Last reported at 2017-May-11 12:51 UTC. Time now 2017-May-28 10:22 UTC.
Position N 28°19' W 015°37'.
Warning: this ship's position is 16 days out of date.

Length 24 m.

Type: Sailing vessel. MMSI: 577192000.

Date/timePositionNaut miles runAvg speedWind from/ knotsBaromVisibWave heightAir tempDewpointWater temp
2017-May-11 12:51N 28°19' W 015°37'3 5.4
2017-May-11 12:23N 28°18' W 015°35'2 5.5
2017-May-11 12:00N 28°17' W 015°33'3 6.0
2017-May-11 11:30N 28°15' W 015°30'3 5.6
2017-May-11 11:00N 28°14' W 015°28'3 5.0
2017-May-11 10:30N 28°12' W 015°25'2 4.3
2017-May-11 10:00N 28°11' W 015°24'3 5.2
2017-May-11 09:30N 28°08' W 015°24'1 2.5
2017-May-11 08:56N 28°08' W 015°26'0 0.0
2017-May-11 08:29N 28°08' W 015°26'0 0.0
2017-May-11 07:59N 28°08' W 015°26'0 0.0
2017-May-11 07:29N 28°08' W 015°26'0 0.0
2017-May-11 06:59N 28°08' W 015°26'0 0.1
2017-May-11 06:29N 28°08' W 015°25'0 0.0
2017-May-11 05:59N 28°08' W 015°25'0 0.0
2017-May-11 05:29N 28°08' W 015°25'0 0.0
2017-May-11 04:59N 28°08' W 015°25'0 0.0
2017-May-11 04:29N 28°08' W 015°25'0 0.0
2017-May-11 03:59N 28°08' W 015°25'0 0.0
2017-May-11 03:29N 28°08' W 015°25'0 0.0
2017-May-11 02:59N 28°08' W 015°25'0 0.0
2017-May-11 02:20N 28°08' W 015°25'0 0.0
2017-May-11 01:50N 28°08' W 015°25'0 0.0
2017-May-11 01:20N 28°08' W 015°25'0 0.0
2017-May-11 00:53N 28°08' W 015°25'0 0.0
2017-May-11 00:23N 28°08' W 015°25'0 0.0
2017-May-10 23:53N 28°08' W 015°25'0 0.0
2017-May-10 23:23N 28°08' W 015°25'0 0.0
2017-May-10 22:56N 28°08' W 015°25'0 0.0
2017-May-10 22:26N 28°08' W 015°25'0 0.0
2017-May-10 21:56N 28°08' W 015°25'0 0.0
2017-May-10 21:26N 28°08' W 015°25'0 0.0
2017-May-10 20:56N 28°08' W 015°25'0 0.0
2017-May-10 20:14N 28°08' W 015°25'0 0.0
2017-May-10 19:59N 28°08' W 015°25'0 0.0
2017-May-10 19:29N 28°08' W 015°25'0 0.0
2017-May-10 18:59N 28°08' W 015°25'0 0.0
2017-May-10 18:14N 28°08' W 015°25'0 0.0
2017-May-10 17:56N 28°08' W 015°25'0 0.0
2017-May-10 17:29N 28°08' W 015°25'0 0.0
2017-May-10 16:56N 28°08' W 015°25'0 0.0
2017-May-10 16:14N 28°08' W 015°25'0 0.0
2017-May-10 15:47N 28°08' W 015°25'0 0.0
2017-May-10 15:29N 28°08' W 015°25'0 0.0
2017-May-10 14:50N 28°08' W 015°25'0 0.0
2017-May-10 13:50N 28°08' W 015°25'0 0.0
2017-May-10 13:17N 28°08' W 015°25'0 0.0
2017-May-10 11:39N 28°08' W 015°25'0 0.0
2017-May-10 11:27N 28°08' W 015°25'0 0.0
2017-May-10 10:57N 28°08' W 015°25'0 0.0
2017-May-10 10:27N 28°08' W 015°25'0 0.0
2017-May-10 09:57N 28°08' W 015°25'0 0.0
2017-May-10 09:30N 28°08' W 015°25'0 0.0
2017-May-10 09:00N 28°08' W 015°25'0 0.0
2017-May-09 21:00N 28°08' W 015°25'0 0.0
2017-May-09 20:30N 28°08' W 015°25'0 0.0
2017-May-09 20:00N 28°08' W 015°25'0 0.0
2017-May-09 19:30N 28°08' W 015°26'0 0.0
2017-May-09 19:00N 28°08' W 015°25'0 0.0
2017-May-09 18:30N 28°08' W 015°25'0 0.0
2017-May-09 18:00N 28°08' W 015°26'0 0.0
2017-May-09 17:30N 28°08' W 015°25'0 0.0
2017-May-09 17:00N 28°08' W 015°25'0 0.0
2017-May-09 16:30N 28°08' W 015°25'0 0.0
2017-May-09 16:00N 28°08' W 015°26'0 0.0
2017-May-09 12:55N 28°08' W 015°25'0 0.0
2017-May-09 12:25N 28°08' W 015°25'0 0.0
2017-May-09 11:58N 28°08' W 015°25'0 0.0
2017-May-09 11:28N 28°08' W 015°25'0 0.0
2017-May-09 10:58N 28°08' W 015°25'0 0.0
2017-May-09 10:28N 28°08' W 015°25'0 0.0
2017-May-09 09:58N 28°08' W 015°25'0 0.0
2017-May-09 09:28N 28°08' W 015°25'0 0.0
2017-May-09 08:58N 28°08' W 015°25'0 0.0
2017-May-09 08:28N 28°08' W 015°25'0 0.0
2017-May-09 07:58N 28°08' W 015°25'0 0.0
2017-May-09 07:28N 28°08' W 015°25'0 0.0
2017-May-09 06:58N 28°08' W 015°25'0 0.0
2017-May-09 06:28N 28°08' W 015°25'0 0.1
2017-May-09 05:57N 28°08' W 015°26'0 0.6
2017-May-09 05:30N 28°08' W 015°25'2 4.5
2017-May-09 05:00N 28°08' W 015°23'3 6.2
2017-May-09 04:30N 28°10' W 015°20'3 6.3
2017-May-09 04:00N 28°11' W 015°17'3 6.3
2017-May-09 03:29N 28°13' W 015°14'3 6.2
2017-May-09 02:58N 28°15' W 015°10'3 6.1
2017-May-09 02:28N 28°16' W 015°07'3 6.0
2017-May-09 01:57N 28°18' W 015°04'3 5.9
2017-May-09 01:27N 28°19' W 015°01'3 5.8
2017-May-09 00:57N 28°20' W 014°58'3 5.6
2017-May-09 00:26N 28°21' W 014°55'79 4.7
2017-May-08 07:44N 28°55' W 013°34'2 7.4
2017-May-08 07:30N 28°56' W 013°32'4 7.4
2017-May-08 07:00N 28°58' W 013°29'  
2017-May-01 18:35N 37°46' W 008°54'1 5.2
2017-May-01 18:27N 37°47' W 008°54'1 3.1
2017-May-01 18:00N 37°48' W 008°54'0 0.9
2017-May-01 17:28N 37°49' W 008°53'3 4.8
2017-May-01 16:48N 37°50' W 008°50'1 3.7
2017-May-01 16:30N 37°51' W 008°49'3 5.4
2017-May-01 16:00N 37°54' W 008°49'2 4.9
2017-May-01 15:30N 37°55' W 008°51'2 3.3
2017-May-01 15:00N 37°57' W 008°52'0 0.2
2017-May-01 13:59N 37°57' W 008°52'0 0.0
2017-May-01 13:29N 37°57' W 008°52'0 0.0
2017-May-01 13:00N 37°57' W 008°52'  

Dump ship's entire track history